createdAt,value
2018-05-09T00:00:31.159Z,13.90
2018-05-09T00:03:03.820Z,13.90
2018-05-09T00:05:31.952Z,13.80
2018-05-09T00:08:05.899Z,13.70
2018-05-09T00:10:35.094Z,13.80
2018-05-09T00:13:07.913Z,13.50
2018-05-09T00:15:35.980Z,13.80
2018-05-09T00:18:04.157Z,13.80
2018-05-09T00:20:31.839Z,13.60
2018-05-09T00:23:00.335Z,13.80
2018-05-09T00:25:29.110Z,13.70
2018-05-09T00:28:09.654Z,13.70
2018-05-09T00:30:38.077Z,13.70
2018-05-09T00:33:06.770Z,13.70
2018-05-09T00:35:34.827Z,13.50
2018-05-09T00:38:22.970Z,13.70
2018-05-09T00:40:50.603Z,13.70
2018-05-09T00:43:26.624Z,13.60
2018-05-09T00:45:55.790Z,13.50
2018-05-09T00:48:24.524Z,13.80
2018-05-09T00:50:53.389Z,13.50
2018-05-09T00:53:23.583Z,13.40
2018-05-09T00:55:51.612Z,13.30
2018-05-09T01:00:49.036Z,13.20
2018-05-09T01:03:17.528Z,13.20
2018-05-09T01:05:45.590Z,13.20
2018-05-09T01:08:14.119Z,13.20
2018-05-09T01:10:42.150Z,13.20
2018-05-09T01:13:18.316Z,13.20
2018-05-09T01:15:46.750Z,13.10
2018-05-09T01:18:16.572Z,13.10
2018-05-09T01:20:44.667Z,12.80
2018-05-09T01:23:16.220Z,13.20
2018-05-09T01:25:45.057Z,13.00
2018-05-09T01:28:14.127Z,13.00
2018-05-09T01:30:42.218Z,13.00
2018-05-09T01:33:19.145Z,12.70
2018-05-09T01:35:46.831Z,13.10
2018-05-09T01:38:14.548Z,12.80
2018-05-09T01:40:42.968Z,12.90
2018-05-09T01:43:10.643Z,13.00
2018-05-09T01:45:39.124Z,12.90
2018-05-09T01:48:07.210Z,12.80
2018-05-09T01:50:35.764Z,12.80
2018-05-09T01:53:04.637Z,12.80
2018-05-09T01:55:33.072Z,12.80
2018-05-09T01:58:00.800Z,12.70
2018-05-09T02:00:28.860Z,12.70
2018-05-09T02:03:00.652Z,12.80
2018-05-09T02:05:29.099Z,12.70
2018-05-09T02:07:58.939Z,12.70
2018-05-09T02:10:27.008Z,12.90
2018-05-09T02:13:02.933Z,12.80
2018-05-09T02:15:31.779Z,12.80
2018-05-09T02:18:04.000Z,12.80
2018-05-09T02:20:32.807Z,12.80
2018-05-09T02:23:06.418Z,12.80
2018-05-09T02:25:34.502Z,12.90
2018-05-09T02:28:02.941Z,12.70
2018-05-09T02:30:30.605Z,12.80
2018-05-09T02:32:59.687Z,12.70
2018-05-09T02:35:28.550Z,12.70
2018-05-09T02:37:59.052Z,12.60
2018-05-09T02:40:27.096Z,12.70
2018-05-09T02:42:57.538Z,12.60
2018-05-09T02:45:26.010Z,12.60
2018-05-09T02:47:56.255Z,12.60
2018-05-09T02:50:24.317Z,12.60
2018-05-09T02:52:53.160Z,12.50
2018-05-09T02:55:21.984Z,12.50
2018-05-09T02:57:50.430Z,12.50
2018-05-09T03:00:19.028Z,12.50
2018-05-09T03:02:49.453Z,12.50
2018-05-09T03:05:17.549Z,12.50
2018-05-09T03:07:47.086Z,12.50
2018-05-09T03:10:15.515Z,12.40
2018-05-09T03:12:44.141Z,12.20
2018-05-09T03:15:11.840Z,12.50
2018-05-09T03:17:44.175Z,12.30
2018-05-09T03:20:11.925Z,12.30
2018-05-09T03:22:50.328Z,12.40
2018-05-09T03:25:18.811Z,12.30
2018-05-09T03:28:08.929Z,12.30
2018-05-09T03:30:37.610Z,12.30
2018-05-09T03:33:24.582Z,12.10
2018-05-09T03:35:52.670Z,12.00
2018-05-09T03:38:43.344Z,12.20
2018-05-09T03:41:11.823Z,12.10
2018-05-09T03:43:41.057Z,12.10
2018-05-09T03:46:10.284Z,12.10
2018-05-09T03:48:57.765Z,12.10
2018-05-09T03:51:26.342Z,12.10
2018-05-09T03:53:54.026Z,12.20
2018-05-09T03:56:22.850Z,12.10
2018-05-09T04:01:56.845Z,12.20
2018-05-09T04:04:41.269Z,12.20
2018-05-09T04:10:11.280Z,12.30
2018-05-09T04:12:40.239Z,12.40
2018-05-09T04:15:10.736Z,12.40
2018-05-09T04:17:38.431Z,12.70
2018-05-09T04:20:06.563Z,12.60
2018-05-09T04:22:35.389Z,12.60
2018-05-09T04:25:04.102Z,12.50
2018-05-09T04:27:32.155Z,12.80
2018-05-09T04:30:01.585Z,12.90
2018-05-09T04:32:29.709Z,13.00
2018-05-09T04:34:59.497Z,13.00
2018-05-09T04:37:27.711Z,13.10
2018-05-09T04:39:56.599Z,13.20
2018-05-09T04:42:25.579Z,13.20
2018-05-09T04:44:54.396Z,13.20
2018-05-09T04:47:22.031Z,13.30
2018-05-09T04:49:50.470Z,13.50
2018-05-09T04:52:19.391Z,13.50
2018-05-09T04:54:48.808Z,13.60
2018-05-09T04:57:17.222Z,13.70
2018-05-09T04:59:46.456Z,13.80
2018-05-09T05:02:14.096Z,14.20
2018-05-09T05:04:42.608Z,14.10
2018-05-09T05:07:10.251Z,14.40
2018-05-09T05:09:38.764Z,14.30
2018-05-09T05:12:07.196Z,14.40
2018-05-09T05:14:35.963Z,14.30
2018-05-09T05:17:04.403Z,14.50
2018-05-09T05:19:33.831Z,14.70
2018-05-09T05:22:02.279Z,14.80
2018-05-09T05:24:31.753Z,14.90
2018-05-09T05:27:00.267Z,15.00
2018-05-09T05:29:28.081Z,14.90
2018-05-09T05:31:55.767Z,15.20
2018-05-09T05:34:23.425Z,15.10
2018-05-09T05:36:52.310Z,15.40
2018-05-09T05:39:21.762Z,15.40
2018-05-09T05:41:50.182Z,15.50
2018-05-09T05:44:18.708Z,15.70
2018-05-09T05:46:46.807Z,15.70
2018-05-09T05:49:17.318Z,15.90
2018-05-09T05:51:45.366Z,16.00
2018-05-09T05:54:17.958Z,16.10
2018-05-09T05:56:46.378Z,16.10
2018-05-09T05:59:14.474Z,16.30
2018-05-09T06:01:42.145Z,16.50
2018-05-09T06:04:10.622Z,16.50
2018-05-09T06:06:38.705Z,16.10
2018-05-09T06:09:06.780Z,16.60
2018-05-09T06:11:35.246Z,16.70
2018-05-09T06:14:04.342Z,16.80
2018-05-09T06:16:32.522Z,16.60
2018-05-09T06:19:00.222Z,17.20
2018-05-09T06:21:28.280Z,17.20
2018-05-09T06:23:58.986Z,17.40
2018-05-09T06:26:27.362Z,17.50
2018-05-09T06:28:55.831Z,17.60
2018-05-09T06:31:24.291Z,17.70
2018-05-09T06:33:53.979Z,17.90
2018-05-09T06:36:22.420Z,18.00
2018-05-09T06:38:50.486Z,18.10
2018-05-09T06:41:18.551Z,18.30
2018-05-09T06:43:48.706Z,18.40
2018-05-09T06:46:16.770Z,18.70
2018-05-09T06:48:46.909Z,18.70
2018-05-09T06:51:15.006Z,18.80
2018-05-09T06:53:43.226Z,19.10
2018-05-09T06:56:12.460Z,19.10
2018-05-09T06:58:42.918Z,19.30
2018-05-09T07:01:12.224Z,19.40
2018-05-09T07:03:40.899Z,19.50
2018-05-09T07:06:08.578Z,19.40
2018-05-09T07:08:37.985Z,19.80
2018-05-09T07:11:06.799Z,20.00
2018-05-09T07:13:34.957Z,20.00
2018-05-09T07:16:03.013Z,20.40
2018-05-09T07:18:35.584Z,20.30
2018-05-09T07:21:04.768Z,20.50
2018-05-09T07:23:32.855Z,20.70
2018-05-09T07:26:00.993Z,20.70
2018-05-09T07:30:59.481Z,21.20
2018-05-09T07:33:29.121Z,21.10
2018-05-09T07:35:57.935Z,21.50
2018-05-09T07:38:26.090Z,21.30
2018-05-09T07:40:54.158Z,21.70
2018-05-09T07:43:23.924Z,22.20
2018-05-09T07:45:52.697Z,21.80
2018-05-09T07:50:51.118Z,22.00
2018-05-09T07:53:19.293Z,22.10
2018-05-09T07:55:48.540Z,22.20
2018-05-09T07:58:17.067Z,22.30
2018-05-09T08:00:45.498Z,22.50
2018-05-09T08:03:15.309Z,22.60
2018-05-09T08:05:43.827Z,22.60
2018-05-09T08:08:20.042Z,22.20
2018-05-09T08:10:48.463Z,22.80
2018-05-09T08:13:16.902Z,22.80
2018-05-09T08:15:45.465Z,23.00
2018-05-09T08:18:14.300Z,23.10
2018-05-09T08:20:43.531Z,23.20
2018-05-09T08:23:19.174Z,23.30
2018-05-09T08:25:47.679Z,23.50
2018-05-09T08:28:16.869Z,23.60
2018-05-09T08:30:44.967Z,24.00
2018-05-09T08:33:12.753Z,23.30
2018-05-09T08:35:41.173Z,23.90
2018-05-09T08:38:08.984Z,24.00
2018-05-09T08:40:38.144Z,24.20
2018-05-09T08:43:06.621Z,24.30
2018-05-09T08:45:34.689Z,24.40
2018-05-09T08:48:02.759Z,24.80
2018-05-09T08:50:31.285Z,25.10
2018-05-09T08:52:59.762Z,25.10
2018-05-09T08:55:28.370Z,25.20
2018-05-09T08:57:57.195Z,25.30
2018-05-09T09:00:26.002Z,25.30
2018-05-09T09:02:54.741Z,25.50
2018-05-09T09:05:24.166Z,25.30
2018-05-09T09:07:53.142Z,25.40
2018-05-09T09:10:21.262Z,25.60
2018-05-09T09:12:49.689Z,25.70
2018-05-09T09:15:17.417Z,25.20
2018-05-09T09:17:46.591Z,25.90
2018-05-09T09:20:14.667Z,25.90
2018-05-09T09:22:43.131Z,26.10
2018-05-09T09:25:11.189Z,26.10
2018-05-09T09:27:40.585Z,26.40
2018-05-09T09:30:09.782Z,26.30
2018-05-09T09:32:39.457Z,26.40
2018-05-09T09:35:07.927Z,26.50
2018-05-09T09:40:06.308Z,26.60
2018-05-09T09:42:35.160Z,26.80
2018-05-09T09:45:03.636Z,26.70
2018-05-09T09:47:33.142Z,27.10
2018-05-09T09:50:01.567Z,27.30
2018-05-09T09:52:30.273Z,27.70
2018-05-09T09:54:58.137Z,27.10
2018-05-09T09:57:26.829Z,26.70
2018-05-09T09:59:55.644Z,27.20
2018-05-09T10:02:24.943Z,27.20
2018-05-09T10:04:53.013Z,27.70
2018-05-09T10:07:22.040Z,27.50
2018-05-09T10:09:49.700Z,26.90
2018-05-09T10:12:19.513Z,27.50
2018-05-09T10:14:47.200Z,28.00
2018-05-09T10:17:15.886Z,27.70
2018-05-09T10:22:12.597Z,28.00
2018-05-09T10:24:40.345Z,27.90
2018-05-09T10:27:09.919Z,28.10
2018-05-09T10:29:37.665Z,28.00
2018-05-09T10:32:06.080Z,28.60
2018-05-09T10:34:34.196Z,28.90
2018-05-09T10:37:01.910Z,28.80
2018-05-09T10:44:28.056Z,28.80
2018-05-09T10:46:55.712Z,29.50
2018-05-09T10:51:54.452Z,29.60
2018-05-09T10:54:22.153Z,29.40
2018-05-09T10:56:51.785Z,29.10
2018-05-09T10:59:20.670Z,29.40
2018-05-09T11:01:50.102Z,29.40
2018-05-09T11:04:18.161Z,28.90
2018-05-09T11:06:46.867Z,29.30
2018-05-09T11:09:15.679Z,29.30
2018-05-09T11:11:46.172Z,29.20
2018-05-09T11:14:14.199Z,29.40
2018-05-09T11:16:43.712Z,29.20
2018-05-09T11:19:11.777Z,30.40
2018-05-09T11:21:40.499Z,28.70
2018-05-09T11:24:08.553Z,29.50
2018-05-09T11:26:36.626Z,28.40
2018-05-09T11:29:04.368Z,27.70
2018-05-09T11:31:32.083Z,27.70
2018-05-09T11:34:00.136Z,27.70
2018-05-09T11:36:36.490Z,28.00
2018-05-09T11:39:05.902Z,27.90
2018-05-09T11:41:34.020Z,28.20
2018-05-09T11:44:02.802Z,28.20
2018-05-09T11:46:31.650Z,28.40
2018-05-09T11:48:59.315Z,28.10
2018-05-09T11:51:28.108Z,28.50
2018-05-09T11:53:55.789Z,28.50
2018-05-09T11:56:24.280Z,28.70
2018-05-09T11:58:52.719Z,29.00
2018-05-09T12:01:20.410Z,29.00
2018-05-09T12:03:48.973Z,29.40
2018-05-09T12:06:18.669Z,29.80
2018-05-09T12:08:46.376Z,30.60
2018-05-09T12:11:18.913Z,30.30
2018-05-09T12:13:47.910Z,30.30
2018-05-09T12:16:16.005Z,30.40
2018-05-09T12:18:43.706Z,30.60
2018-05-09T12:21:12.474Z,29.50
2018-05-09T12:23:41.305Z,30.40
2018-05-09T12:26:11.068Z,30.70
2018-05-09T12:28:39.506Z,30.80
2018-05-09T12:31:09.536Z,30.40
2018-05-09T12:33:37.213Z,30.40
2018-05-09T12:38:38.187Z,30.90
2018-05-09T12:41:07.053Z,30.90
2018-05-09T12:43:34.728Z,31.30
2018-05-09T12:46:03.226Z,31.00
2018-05-09T12:48:31.020Z,30.40
2018-05-09T12:50:59.428Z,31.00
2018-05-09T12:53:27.124Z,30.90
2018-05-09T12:55:57.703Z,30.80
2018-05-09T12:58:26.127Z,31.00
2018-05-09T13:00:53.857Z,30.80
2018-05-09T13:03:22.749Z,30.60
2018-05-09T13:05:51.198Z,30.80
2018-05-09T13:08:18.984Z,30.30
2018-05-09T13:10:47.477Z,30.70
2018-05-09T13:13:15.152Z,31.20
2018-05-09T13:18:18.359Z,30.90
2018-05-09T13:20:48.946Z,30.90
2018-05-09T13:23:17.343Z,31.00
2018-05-09T13:25:47.111Z,30.70
2018-05-09T13:28:15.560Z,31.10
2018-05-09T13:30:44.366Z,31.00
2018-05-09T13:33:12.837Z,30.70
2018-05-09T13:35:41.497Z,30.40
2018-05-09T13:38:09.296Z,30.60
2018-05-09T13:40:45.428Z,30.80
2018-05-09T13:43:13.124Z,30.90
2018-05-09T13:45:41.588Z,31.40
2018-05-09T13:48:10.385Z,31.40
2018-05-09T13:50:39.866Z,31.50
2018-05-09T13:53:08.718Z,31.40
2018-05-09T13:55:39.614Z,31.30
2018-05-09T13:58:08.055Z,31.30
2018-05-09T14:00:36.546Z,31.50
2018-05-09T14:03:04.653Z,31.50
2018-05-09T14:05:33.222Z,31.30
2018-05-09T14:08:00.920Z,31.90
2018-05-09T14:10:35.086Z,31.30
2018-05-09T14:13:02.790Z,32.00
2018-05-09T14:15:35.018Z,31.50
2018-05-09T14:18:03.856Z,31.80
2018-05-09T14:20:32.572Z,31.80
2018-05-09T14:23:00.346Z,31.10
2018-05-09T14:25:28.818Z,32.10
2018-05-09T14:27:56.472Z,32.80
2018-05-09T14:30:28.059Z,32.30
2018-05-09T14:32:55.739Z,32.10
2018-05-09T14:35:24.293Z,32.50
2018-05-09T14:37:51.964Z,32.30
2018-05-09T14:40:27.506Z,32.70
2018-05-09T14:42:55.982Z,33.20
2018-05-09T14:45:24.280Z,33.30
2018-05-09T14:47:52.708Z,33.60
2018-05-09T14:50:20.476Z,33.30
2018-05-09T14:52:49.295Z,33.80
2018-05-09T14:55:17.019Z,33.80
2018-05-09T14:57:45.905Z,33.90
2018-05-09T15:00:14.800Z,34.50
2018-05-09T15:02:42.435Z,35.30
2018-05-09T15:05:10.583Z,35.10
2018-05-09T15:07:39.398Z,35.00
2018-05-09T15:10:11.812Z,34.90
2018-05-09T15:12:39.518Z,34.30
2018-05-09T15:15:08.102Z,34.90
2018-05-09T15:17:37.408Z,35.10
2018-05-09T15:20:05.947Z,35.20
2018-05-09T15:22:33.595Z,35.00
2018-05-09T15:25:01.381Z,36.20
2018-05-09T15:27:29.438Z,35.70
2018-05-09T15:29:58.586Z,35.80
2018-05-09T15:34:58.082Z,35.90
2018-05-09T15:37:26.994Z,36.10
2018-05-09T15:39:55.816Z,35.30
2018-05-09T15:42:23.496Z,36.20
2018-05-09T15:44:53.489Z,35.60
2018-05-09T15:47:21.154Z,35.60
2018-05-09T15:49:50.941Z,36.10
2018-05-09T15:52:19.570Z,36.30
2018-05-09T15:57:17.159Z,36.60
2018-05-09T16:02:14.031Z,35.90
2018-05-09T16:04:42.198Z,36.30
2018-05-09T16:07:09.866Z,37.10
2018-05-09T16:09:38.325Z,36.80
2018-05-09T16:12:05.992Z,36.70
2018-05-09T16:14:34.498Z,36.50
2018-05-09T16:17:02.973Z,36.90
2018-05-09T16:21:59.726Z,35.90
2018-05-09T16:24:27.464Z,36.70
2018-05-09T16:26:56.664Z,35.10
2018-05-09T16:29:25.130Z,33.40
2018-05-09T16:31:52.931Z,32.80
2018-05-09T16:34:21.073Z,32.80
2018-05-09T16:36:48.813Z,32.90
2018-05-09T16:39:18.301Z,33.40
2018-05-09T16:41:46.348Z,34.50
2018-05-09T16:44:14.098Z,35.40
2018-05-09T16:46:42.938Z,35.40
2018-05-09T16:49:13.446Z,34.90
2018-05-09T16:51:41.851Z,33.80
2018-05-09T16:54:11.004Z,32.90
2018-05-09T16:56:38.692Z,32.40
2018-05-09T16:59:07.388Z,32.90
2018-05-09T17:01:35.069Z,33.30
2018-05-09T17:04:07.184Z,34.10
2018-05-09T17:06:35.255Z,34.60
2018-05-09T17:09:03.598Z,34.50
2018-05-09T17:11:32.038Z,34.20
2018-05-09T17:14:01.735Z,34.20
2018-05-09T17:16:29.817Z,32.20
2018-05-09T17:19:00.017Z,31.40
2018-05-09T17:21:39.981Z,31.10
2018-05-09T17:26:37.634Z,32.50
2018-05-09T17:29:05.712Z,33.10
2018-05-09T17:31:35.166Z,33.40
2018-05-09T17:34:03.319Z,33.20
2018-05-09T17:36:33.005Z,33.90
2018-05-09T17:41:31.071Z,32.50
2018-05-09T17:43:59.296Z,31.90
2018-05-09T17:46:28.811Z,31.00
2018-05-09T17:51:26.292Z,28.90
2018-05-09T17:53:54.078Z,28.10
2018-05-09T17:56:23.454Z,27.60
2018-05-09T18:01:25.756Z,27.20
2018-05-09T18:03:54.654Z,26.80
2018-05-09T18:06:22.761Z,26.50
2018-05-09T18:08:50.808Z,26.20
2018-05-09T18:11:18.492Z,26.10
2018-05-09T18:13:46.994Z,25.90
2018-05-09T18:16:16.691Z,25.90
2018-05-09T18:21:14.474Z,25.50
2018-05-09T18:23:43.054Z,25.30
2018-05-09T18:26:13.621Z,25.20
2018-05-09T18:28:42.619Z,25.00
2018-05-09T18:31:12.799Z,24.70
2018-05-09T18:36:11.404Z,24.50
2018-05-09T18:38:39.484Z,24.30
2018-05-09T18:41:28.509Z,24.10
2018-05-09T18:43:56.167Z,23.80
2018-05-09T18:46:24.000Z,23.30
2018-05-09T18:48:52.453Z,23.60
2018-05-09T18:54:06.705Z,22.50
2018-05-09T18:56:34.805Z,23.00
2018-05-09T18:59:02.489Z,22.20
2018-05-09T19:01:30.966Z,22.70
2018-05-09T19:03:58.706Z,22.50
2018-05-09T19:06:36.928Z,22.40
2018-05-09T19:09:05.143Z,22.20
2018-05-09T19:11:34.271Z,22.00
2018-05-09T19:14:02.726Z,21.80
2018-05-09T19:16:30.430Z,22.50
2018-05-09T19:18:58.863Z,21.60
2018-05-09T19:23:57.291Z,21.50
2018-05-09T19:26:26.529Z,21.50
2018-05-09T19:28:54.782Z,21.10
2018-05-09T19:31:23.100Z,21.50
2018-05-09T19:33:51.731Z,21.50
2018-05-09T19:36:21.820Z,21.40
2018-05-09T19:38:49.839Z,21.30
2018-05-09T19:43:49.339Z,21.50
2018-05-09T19:46:18.722Z,21.40
2018-05-09T19:48:47.926Z,21.40
2018-05-09T19:51:16.574Z,20.90
2018-05-09T19:53:44.981Z,21.40
2018-05-09T19:56:13.380Z,21.30
2018-05-09T19:58:41.177Z,21.50
2018-05-09T20:03:39.195Z,21.00
2018-05-09T20:06:07.683Z,21.00
2018-05-09T20:08:36.199Z,21.00
2018-05-09T20:11:04.590Z,21.00
2018-05-09T20:13:33.012Z,20.90
2018-05-09T20:16:01.408Z,20.90
2018-05-09T20:18:29.825Z,20.60
2018-05-09T20:20:58.237Z,20.90
2018-05-09T20:23:25.980Z,21.00
2018-05-09T20:25:54.008Z,20.90
2018-05-09T20:28:22.818Z,20.90
2018-05-09T20:30:57.165Z,20.90
2018-05-09T20:33:26.310Z,20.90
2018-05-09T20:35:54.373Z,20.80
2018-05-09T20:38:22.781Z,20.80
2018-05-09T20:40:51.201Z,20.70
2018-05-09T20:43:18.876Z,20.60
2018-05-09T20:45:46.893Z,20.50
2018-05-09T20:50:43.905Z,20.40
2018-05-09T20:53:11.584Z,20.40
2018-05-09T20:55:39.599Z,20.30
2018-05-09T20:58:08.401Z,20.20
2018-05-09T21:00:36.073Z,20.20
2018-05-09T21:03:04.113Z,20.10
2018-05-09T21:05:33.829Z,20.00
2018-05-09T21:08:02.599Z,19.90
2018-05-09T21:10:30.992Z,19.80
2018-05-09T21:12:59.441Z,19.80
2018-05-09T21:15:28.623Z,19.70
2018-05-09T21:17:57.837Z,19.50
2018-05-09T21:20:26.264Z,19.50
2018-05-09T21:22:54.678Z,19.40
2018-05-09T21:25:23.449Z,19.30
2018-05-09T21:27:52.661Z,19.30
2018-05-09T21:30:21.054Z,19.20
2018-05-09T21:32:49.852Z,19.10
2018-05-09T21:37:47.660Z,18.90
2018-05-09T21:42:45.802Z,18.80
2018-05-09T21:45:13.864Z,18.80
2018-05-09T21:47:41.528Z,18.60
2018-05-09T21:50:10.734Z,18.60
2018-05-09T21:52:38.779Z,18.80
2018-05-09T21:55:07.603Z,18.50
2018-05-09T21:57:36.047Z,18.60
2018-05-09T22:00:04.445Z,18.50
2018-05-09T22:02:32.586Z,18.50
2018-05-09T22:05:01.019Z,18.50
2018-05-09T22:07:29.800Z,18.50
2018-05-09T22:09:57.888Z,18.40
2018-05-09T22:12:26.284Z,18.40
2018-05-09T22:14:54.675Z,18.40
2018-05-09T22:17:23.468Z,18.30
2018-05-09T22:19:52.279Z,18.20
2018-05-09T22:22:20.434Z,18.20
2018-05-09T22:27:17.067Z,17.90
2018-05-09T22:29:45.131Z,18.10
2018-05-09T22:32:13.150Z,18.00
2018-05-09T22:34:43.652Z,17.90
2018-05-09T22:39:40.744Z,17.70
2018-05-09T22:44:38.904Z,17.70
2018-05-09T22:47:06.999Z,17.60
2018-05-09T22:49:35.796Z,17.60
2018-05-09T22:52:03.596Z,17.70
2018-05-09T23:01:58.957Z,17.30
2018-05-09T23:04:27.127Z,17.30
2018-05-09T23:06:55.511Z,17.20
2018-05-09T23:09:23.538Z,17.10
2018-05-09T23:11:51.978Z,17.10
2018-05-09T23:14:20.539Z,17.10
2018-05-09T23:16:48.175Z,16.80
2018-05-09T23:19:16.274Z,17.00
2018-05-09T23:21:44.723Z,16.90
2018-05-09T23:24:13.912Z,16.90
2018-05-09T23:26:41.945Z,16.70
2018-05-09T23:29:09.596Z,16.80
2018-05-09T23:31:38.407Z,16.60
2018-05-09T23:34:06.072Z,16.50
2018-05-09T23:39:03.569Z,16.40
2018-05-09T23:41:32.002Z,16.40
2018-05-09T23:44:00.838Z,16.40
2018-05-09T23:46:28.891Z,16.40
2018-05-09T23:48:56.571Z,16.40
2018-05-09T23:51:24.212Z,16.50
2018-05-09T23:56:21.260Z,16.10
2018-05-09T23:58:48.951Z,16.20
